createdAt,value
2022-12-01T00:01:21.203Z,-1.49
2022-12-01T00:03:49.092Z,-1.35
2022-12-01T00:06:21.301Z,-1.35
2022-12-01T00:09:09.869Z,-1.49
2022-12-01T00:11:38.877Z,-1.66
2022-12-01T00:14:06.692Z,-1.59
2022-12-01T00:16:34.986Z,-1.62
2022-12-01T00:19:02.572Z,-1.65
2022-12-01T00:21:30.171Z,-1.65
2022-12-01T00:23:58.378Z,-1.44
2022-12-01T00:26:27.850Z,-1.40
2022-12-01T00:28:57.798Z,-1.32
2022-12-01T00:31:26.542Z,-1.26
2022-12-01T00:33:54.113Z,-1.34
2022-12-01T00:36:22.638Z,-1.57
2022-12-01T00:38:55.104Z,-1.77
2022-12-01T00:41:24.522Z,-1.74
2022-12-01T00:43:52.447Z,-1.71
2022-12-01T00:46:21.086Z,-1.46
2022-12-01T00:48:49.729Z,-1.46
2022-12-01T00:51:17.321Z,-1.62
2022-12-01T00:53:44.781Z,-1.66
2022-12-01T00:56:12.743Z,-1.69
2022-12-01T00:58:40.218Z,-1.76
2022-12-01T01:01:07.839Z,-1.83
2022-12-01T01:03:35.466Z,-1.91
2022-12-01T01:06:11.502Z,-1.73
2022-12-01T01:08:39.768Z,-1.66
2022-12-01T01:11:07.713Z,-1.91
2022-12-01T01:13:36.088Z,-1.93
2022-12-01T01:16:11.463Z,-1.91
2022-12-01T01:18:38.973Z,-1.74
2022-12-01T01:21:09.198Z,-1.76
2022-12-01T01:23:38.681Z,-1.85
2022-12-01T01:26:40.678Z,-1.93
2022-12-01T01:29:08.381Z,-1.99
2022-12-01T01:31:36.638Z,-2.05
2022-12-01T01:34:04.549Z,-2.04
2022-12-01T01:36:32.103Z,-2.08
2022-12-01T01:39:01.150Z,-2.07
2022-12-01T01:41:29.042Z,-2.09
2022-12-01T01:44:03.092Z,-2.11
2022-12-01T01:46:33.576Z,-2.15
2022-12-01T01:49:04.033Z,-2.14
2022-12-01T01:51:45.531Z,-2.07
2022-12-01T01:54:28.325Z,-2.11
2022-12-01T01:56:57.792Z,-2.12
2022-12-01T01:59:31.244Z,-2.08
2022-12-01T02:02:10.261Z,-2.04
2022-12-01T02:04:41.847Z,-2.06
2022-12-01T02:07:11.912Z,-2.07
2022-12-01T02:09:39.382Z,-2.04
2022-12-01T02:12:43.532Z,-2.15
2022-12-01T02:15:35.833Z,-2.14
2022-12-01T02:18:39.460Z,-2.24
2022-12-01T02:21:25.149Z,-2.16
2022-12-01T02:24:30.260Z,-2.08
2022-12-01T02:28:01.811Z,-1.97
2022-12-01T02:30:39.574Z,-2.08
2022-12-01T02:33:40.749Z,-2.15
2022-12-01T02:36:22.895Z,-2.12
2022-12-01T02:38:59.262Z,-2.04
2022-12-01T02:41:30.707Z,-2.01
2022-12-01T02:44:05.292Z,-2.09
2022-12-01T02:46:59.078Z,-2.02
2022-12-01T02:49:31.033Z,-2.14
2022-12-01T02:51:59.545Z,-2.11
2022-12-01T02:54:31.459Z,-2.13
2022-12-01T02:56:59.704Z,-2.09
2022-12-01T02:59:27.188Z,-2.12
2022-12-01T03:02:20.703Z,-2.13
2022-12-01T03:04:50.960Z,-2.08
2022-12-01T03:07:37.253Z,-2.10
2022-12-01T03:10:16.580Z,-2.07
2022-12-01T03:13:17.510Z,-2.01
2022-12-01T03:15:50.933Z,-1.99
2022-12-01T03:18:37.270Z,-1.85
2022-12-01T03:21:09.781Z,-1.72
2022-12-01T03:23:44.641Z,-1.68
2022-12-01T03:26:17.442Z,-1.75
2022-12-01T03:28:52.832Z,-1.79
2022-12-01T03:31:27.123Z,-1.75
2022-12-01T03:34:11.281Z,-1.98
2022-12-01T03:36:53.731Z,-2.00
2022-12-01T03:39:26.717Z,-1.98
2022-12-01T03:42:12.131Z,-1.99
2022-12-01T03:44:46.350Z,-1.95
2022-12-01T03:47:18.491Z,-1.91
2022-12-01T03:49:47.554Z,-1.99
2022-12-01T03:52:38.155Z,-2.02
2022-12-01T03:55:14.002Z,-2.03
2022-12-01T03:57:50.358Z,-2.04
2022-12-01T04:00:19.765Z,-2.00
2022-12-01T04:02:49.129Z,-2.00
2022-12-01T04:05:19.959Z,-1.95
2022-12-01T04:07:50.063Z,-1.96
2022-12-01T04:10:17.910Z,-1.99
2022-12-01T04:12:45.631Z,-1.99
2022-12-01T04:15:14.610Z,-1.97
2022-12-01T04:17:43.739Z,-1.97
2022-12-01T04:20:16.692Z,-1.94
2022-12-01T04:22:44.499Z,-1.91
2022-12-01T04:25:12.521Z,-1.85
2022-12-01T04:27:40.324Z,-1.89
2022-12-01T04:30:08.559Z,-1.87
2022-12-01T04:32:40.382Z,-1.86
2022-12-01T04:35:10.623Z,-1.89
2022-12-01T04:37:39.151Z,-1.92
2022-12-01T04:40:07.571Z,-1.93
2022-12-01T04:42:35.090Z,-1.94
2022-12-01T04:45:02.703Z,-2.00
2022-12-01T04:47:30.192Z,-1.95
2022-12-01T04:49:57.707Z,-1.89
2022-12-01T04:52:26.086Z,-1.85
2022-12-01T04:54:54.879Z,-1.77
2022-12-01T04:57:22.347Z,-1.77
2022-12-01T04:59:50.078Z,-1.81
2022-12-01T05:02:17.914Z,-1.82
2022-12-01T05:04:48.096Z,-1.74
2022-12-01T05:07:15.689Z,-1.72
2022-12-01T05:13:50.433Z,-1.81
2022-12-01T05:16:21.005Z,-1.89
2022-12-01T05:19:16.541Z,-1.88
2022-12-01T05:21:45.692Z,-1.85
2022-12-01T05:24:14.507Z,-1.78
2022-12-01T05:26:43.463Z,-1.71
2022-12-01T05:29:11.748Z,-1.73
2022-12-01T05:31:39.991Z,-1.76
2022-12-01T05:34:08.437Z,-1.70
2022-12-01T05:36:36.604Z,-1.57
2022-12-01T05:39:04.727Z,-1.50
2022-12-01T05:41:32.314Z,-1.44
2022-12-01T05:43:59.735Z,-1.37
2022-12-01T05:46:27.425Z,-1.50
2022-12-01T05:48:54.925Z,-1.69
2022-12-01T05:51:22.477Z,-1.67
2022-12-01T05:53:50.057Z,-1.56
2022-12-01T05:56:17.511Z,-1.52
2022-12-01T05:58:45.718Z,-1.46
2022-12-01T06:01:13.167Z,-1.47
2022-12-01T06:03:40.787Z,-1.64
2022-12-01T06:06:08.277Z,-1.71
2022-12-01T06:08:35.771Z,-1.78
2022-12-01T06:11:03.416Z,-1.82
2022-12-01T06:13:30.914Z,-1.77
2022-12-01T06:16:00.217Z,-1.74
2022-12-01T06:18:28.194Z,-1.65
2022-12-01T06:20:55.796Z,-1.53
2022-12-01T06:23:27.592Z,-1.56
2022-12-01T06:25:58.530Z,-1.55
2022-12-01T06:28:25.994Z,-1.57
2022-12-01T06:30:57.761Z,-1.40
2022-12-01T06:33:28.867Z,-1.36
2022-12-01T06:36:00.277Z,-1.53
2022-12-01T06:38:31.587Z,-1.62
2022-12-01T06:40:59.696Z,-1.61
2022-12-01T06:43:27.732Z,-1.64
2022-12-01T06:46:01.152Z,-1.67
2022-12-01T06:48:30.227Z,-1.60
2022-12-01T06:50:59.157Z,-1.55
2022-12-01T06:53:28.673Z,-1.53
2022-12-01T06:56:04.691Z,-1.53
2022-12-01T06:58:33.012Z,-1.56
2022-12-01T07:01:01.163Z,-1.64
2022-12-01T07:03:28.818Z,-1.63
2022-12-01T07:05:59.037Z,-1.60
2022-12-01T07:08:28.675Z,-1.65
2022-12-01T07:11:04.908Z,-1.69
2022-12-01T07:13:33.909Z,-1.60
2022-12-01T07:16:06.136Z,-1.62
2022-12-01T07:18:34.438Z,-1.64
2022-12-01T07:21:04.202Z,-1.64
2022-12-01T07:23:31.898Z,-1.63
2022-12-01T07:26:21.889Z,-1.67
2022-12-01T07:28:49.498Z,-1.60
2022-12-01T07:31:19.383Z,-1.62
2022-12-01T07:33:47.088Z,-1.57
2022-12-01T07:36:14.937Z,-1.51
2022-12-01T07:38:43.307Z,-1.53
2022-12-01T07:41:16.017Z,-1.62
2022-12-01T07:43:43.708Z,-1.63
2022-12-01T07:46:22.366Z,-1.68
2022-12-01T07:48:51.080Z,-1.68
2022-12-01T07:51:19.594Z,-1.67
2022-12-01T07:53:49.717Z,-1.67
2022-12-01T07:56:18.334Z,-1.58
2022-12-01T07:58:46.128Z,-1.57
2022-12-01T08:01:16.979Z,-1.60
2022-12-01T08:03:45.136Z,-1.63
2022-12-01T08:06:12.964Z,-1.62
2022-12-01T08:08:41.768Z,-1.55
2022-12-01T08:11:18.412Z,-1.58
2022-12-01T08:13:46.077Z,-1.62
2022-12-01T08:16:15.552Z,-1.56
2022-12-01T08:18:44.969Z,-1.60
2022-12-01T08:21:16.348Z,-1.56
2022-12-01T08:23:44.877Z,-1.65
2022-12-01T08:26:15.270Z,-1.58
2022-12-01T08:28:43.228Z,-1.64
2022-12-01T08:31:31.788Z,-1.69
2022-12-01T08:33:59.796Z,-1.71
2022-12-01T08:36:27.483Z,-1.72
2022-12-01T08:38:56.084Z,-1.69
2022-12-01T08:41:24.892Z,-1.65
2022-12-01T08:44:00.774Z,-1.64
2022-12-01T08:46:32.865Z,-1.57
2022-12-01T08:49:01.720Z,-1.54
2022-12-01T08:51:29.869Z,-1.60
2022-12-01T08:54:01.839Z,-1.51
2022-12-01T08:56:35.906Z,-1.46
2022-12-01T08:59:04.165Z,-1.43
2022-12-01T09:01:33.185Z,-1.47
2022-12-01T09:04:10.912Z,-1.51
2022-12-01T09:06:41.407Z,-1.55
2022-12-01T09:09:10.975Z,-1.52
2022-12-01T09:11:39.276Z,-1.45
2022-12-01T09:14:07.163Z,-1.55
2022-12-01T09:16:34.830Z,-1.54
2022-12-01T09:19:02.487Z,-1.51
2022-12-01T09:21:31.756Z,-1.52
2022-12-01T09:24:00.436Z,-1.45
2022-12-01T09:26:28.595Z,-1.38
2022-12-01T09:29:00.766Z,-1.36
2022-12-01T09:31:28.863Z,-1.33
2022-12-01T09:33:59.015Z,-1.35
2022-12-01T09:36:27.445Z,-1.36
2022-12-01T09:38:54.908Z,-1.33
2022-12-01T09:41:31.146Z,-1.42
2022-12-01T09:44:06.085Z,-1.37
2022-12-01T09:46:40.899Z,-1.41
2022-12-01T09:49:23.010Z,-1.29
2022-12-01T09:51:54.116Z,-1.17
2022-12-01T09:54:21.799Z,-1.20
2022-12-01T09:56:53.287Z,-1.24
2022-12-01T09:59:27.175Z,-1.35
2022-12-01T10:02:02.698Z,-1.30
2022-12-01T10:04:40.081Z,-1.45
2022-12-01T10:08:03.905Z,-1.42
2022-12-01T10:10:38.483Z,-1.49
2022-12-01T10:13:20.842Z,-1.53
2022-12-01T10:15:54.507Z,-1.44
2022-12-01T10:18:24.977Z,-1.40
2022-12-01T10:21:14.572Z,-1.36
2022-12-01T10:23:58.563Z,-1.45
2022-12-01T10:26:35.126Z,-1.33
2022-12-01T10:29:34.736Z,-1.24
2022-12-01T10:32:57.803Z,-1.39
2022-12-01T10:35:37.406Z,-1.34
2022-12-01T10:38:12.351Z,-1.33
2022-12-01T10:40:41.952Z,-1.27
2022-12-01T10:43:10.867Z,-1.22
2022-12-01T10:45:44.124Z,-1.26
2022-12-01T10:48:15.781Z,-1.38
2022-12-01T10:50:52.486Z,-1.28
2022-12-01T10:53:22.706Z,-1.32
2022-12-01T10:55:56.497Z,-1.22
2022-12-01T10:58:24.243Z,-1.16
2022-12-01T11:01:02.002Z,-1.16
2022-12-01T11:03:35.488Z,-1.05
2022-12-01T11:06:05.911Z,-1.03
2022-12-01T11:08:44.759Z,-1.00
2022-12-01T11:11:41.516Z,-1.04
2022-12-01T11:14:21.372Z,-1.01
2022-12-01T11:16:52.524Z,-1.06
2022-12-01T11:19:34.334Z,-1.10
2022-12-01T11:22:19.672Z,-0.98
2022-12-01T11:24:53.278Z,-0.97
2022-12-01T11:27:22.497Z,-0.95
2022-12-01T11:29:53.004Z,-0.83
2022-12-01T11:32:30.596Z,-0.78
2022-12-01T11:35:32.158Z,-0.86
2022-12-01T11:40:54.198Z,-0.75
2022-12-01T11:43:21.708Z,-0.78
2022-12-01T11:45:49.720Z,-0.82
2022-12-01T11:48:29.018Z,-0.86
2022-12-01T11:51:11.989Z,-0.99
2022-12-01T11:53:44.008Z,-1.08
2022-12-01T11:56:17.581Z,-0.95
2022-12-01T11:58:46.381Z,-0.85
2022-12-01T12:01:29.828Z,-0.87
2022-12-01T12:03:57.407Z,-0.99
2022-12-01T12:06:52.687Z,-1.10
2022-12-01T12:09:25.941Z,-0.99
2022-12-01T12:12:15.164Z,-0.94
2022-12-01T12:15:33.202Z,-0.99
2022-12-01T12:18:31.376Z,-0.89
2022-12-01T12:21:17.315Z,-0.82
2022-12-01T12:24:05.999Z,-0.77
2022-12-01T12:26:41.884Z,-0.83
2022-12-01T12:29:24.435Z,-0.81
2022-12-01T12:31:58.004Z,-0.89
2022-12-01T12:34:40.861Z,-1.07
2022-12-01T12:37:30.881Z,-0.97
2022-12-01T12:40:41.024Z,-1.06
2022-12-01T12:43:27.167Z,-1.02
2022-12-01T12:46:02.502Z,-1.02
2022-12-01T12:52:13.519Z,-0.99
2022-12-01T12:55:19.485Z,-0.98
2022-12-01T12:57:58.463Z,-1.04
2022-12-01T13:00:29.016Z,-1.00
2022-12-01T13:02:59.901Z,-0.93
2022-12-01T13:05:44.051Z,-0.89
2022-12-01T13:08:16.206Z,-0.89
2022-12-01T13:10:46.523Z,-0.92
2022-12-01T13:13:38.942Z,-0.95
2022-12-01T13:16:12.973Z,-0.97
2022-12-01T13:18:49.494Z,-0.95
2022-12-01T13:21:20.516Z,-1.07
2022-12-01T13:23:50.914Z,-1.04
2022-12-01T13:26:21.345Z,-1.05
2022-12-01T13:28:57.606Z,-1.04
2022-12-01T13:31:25.749Z,-1.16
2022-12-01T13:34:01.471Z,-1.20
2022-12-01T13:36:46.380Z,-1.11
2022-12-01T13:39:19.691Z,-1.12
2022-12-01T13:42:01.087Z,-1.06
2022-12-01T13:44:32.866Z,-1.12
2022-12-01T13:47:12.635Z,-1.15
2022-12-01T13:49:42.400Z,-1.12
2022-12-01T13:52:22.154Z,-1.11
2022-12-01T13:55:07.852Z,-1.20
2022-12-01T13:58:14.261Z,-1.27
2022-12-01T14:00:43.236Z,-1.19
2022-12-01T14:03:13.688Z,-1.21
2022-12-01T14:05:57.318Z,-1.24
2022-12-01T14:08:28.479Z,-1.33
2022-12-01T14:11:25.236Z,-1.17
2022-12-01T14:13:58.701Z,-1.19
2022-12-01T14:16:49.995Z,-1.15
2022-12-01T14:19:47.625Z,-1.30
2022-12-01T14:22:44.205Z,-1.26
2022-12-01T14:25:20.999Z,-1.19
2022-12-01T14:27:55.047Z,-1.30
2022-12-01T14:30:41.195Z,-1.33
2022-12-01T14:33:39.817Z,-1.36
2022-12-01T14:36:17.055Z,-1.30
2022-12-01T14:38:46.285Z,-1.27
2022-12-01T14:41:24.616Z,-1.28
2022-12-01T14:44:03.954Z,-1.36
2022-12-01T14:46:58.648Z,-1.44
2022-12-01T14:49:32.336Z,-1.46
2022-12-01T14:52:05.567Z,-1.44
2022-12-01T14:54:42.146Z,-1.46
2022-12-01T14:57:16.577Z,-1.48
2022-12-01T14:59:45.072Z,-1.53
2022-12-01T15:02:14.046Z,-1.49
2022-12-01T15:05:08.508Z,-1.40
2022-12-01T15:07:41.165Z,-1.49
2022-12-01T15:10:24.515Z,-1.45
2022-12-01T15:12:53.435Z,-1.45
2022-12-01T15:15:25.086Z,-1.48
2022-12-01T15:17:55.878Z,-1.50
2022-12-01T15:20:35.837Z,-1.49
2022-12-01T15:23:13.327Z,-1.56
2022-12-01T15:25:43.506Z,-1.60
2022-12-01T15:28:30.896Z,-1.63
2022-12-01T15:30:59.894Z,-1.67
2022-12-01T15:33:36.972Z,-1.68
2022-12-01T15:36:07.328Z,-1.73
2022-12-01T15:38:37.103Z,-1.68
2022-12-01T15:44:02.184Z,-1.62
2022-12-01T15:46:32.176Z,-1.70
2022-12-01T15:49:16.151Z,-1.69
2022-12-01T15:51:44.683Z,-1.74
2022-12-01T15:54:24.650Z,-1.72
2022-12-01T15:56:58.714Z,-1.70
2022-12-01T15:59:37.006Z,-1.71
2022-12-01T16:02:27.315Z,-1.71
2022-12-01T16:05:15.477Z,-1.66
2022-12-01T16:08:12.189Z,-1.78
2022-12-01T16:10:35.090Z,-1.74
2022-12-01T16:13:36.462Z,-1.80
2022-12-01T16:16:31.608Z,-1.73
2022-12-01T16:19:02.435Z,-1.77
2022-12-01T16:21:44.121Z,-1.79
2022-12-01T16:24:22.805Z,-1.82
2022-12-01T16:27:02.663Z,-1.75
2022-12-01T16:29:35.511Z,-1.70
2022-12-01T16:32:22.064Z,-1.80
2022-12-01T16:34:53.521Z,-1.79
2022-12-01T16:37:22.328Z,-1.74
2022-12-01T16:39:50.928Z,-1.72
2022-12-01T16:42:24.151Z,-1.75
2022-12-01T16:44:52.250Z,-1.74
2022-12-01T16:47:23.246Z,-1.74
2022-12-01T16:49:51.836Z,-1.70
2022-12-01T16:55:36.762Z,-1.51
2022-12-01T16:58:04.961Z,-1.67
2022-12-01T17:00:32.760Z,-1.66
2022-12-01T17:03:00.716Z,-1.74
2022-12-01T17:05:28.542Z,-1.71
2022-12-01T17:07:56.333Z,-1.67
2022-12-01T17:10:24.282Z,-1.71
2022-12-01T17:12:51.946Z,-1.67
2022-12-01T17:15:19.706Z,-1.62
2022-12-01T17:17:47.185Z,-1.66
2022-12-01T17:20:16.092Z,-1.61
2022-12-01T17:22:43.796Z,-1.66
2022-12-01T17:25:11.394Z,-1.58
2022-12-01T17:27:39.201Z,-1.56
2022-12-01T17:30:07.504Z,-1.49
2022-12-01T17:32:35.177Z,-1.50
2022-12-01T17:35:03.304Z,-1.49
2022-12-01T17:37:30.865Z,-1.51
2022-12-01T17:39:58.381Z,-1.55
2022-12-01T17:42:25.877Z,-1.55
2022-12-01T17:44:53.383Z,-1.53
2022-12-01T17:47:20.878Z,-1.61
2022-12-01T17:49:48.446Z,-1.49
2022-12-01T17:52:16.151Z,-1.57
2022-12-01T17:54:43.786Z,-1.54
2022-12-01T17:57:11.614Z,-1.52
2022-12-01T17:59:40.354Z,-1.48
2022-12-01T18:02:11.627Z,-1.48
2022-12-01T18:04:39.818Z,-1.43
2022-12-01T18:07:07.611Z,-1.51
2022-12-01T18:09:35.206Z,-1.49
2022-12-01T18:12:02.779Z,-1.46
2022-12-01T18:14:31.194Z,-1.44
2022-12-01T18:16:58.652Z,-1.47
2022-12-01T18:19:26.674Z,-1.42
2022-12-01T18:21:54.208Z,-1.47
2022-12-01T18:24:21.685Z,-1.46
2022-12-01T18:26:49.274Z,-1.44
2022-12-01T18:29:26.019Z,-1.45
2022-12-01T18:31:55.237Z,-1.44
2022-12-01T18:34:23.013Z,-1.39
2022-12-01T18:36:50.691Z,-1.36
2022-12-01T18:39:18.235Z,-1.35
2022-12-01T18:41:45.771Z,-1.33
2022-12-01T18:44:13.515Z,-1.32
2022-12-01T18:46:41.243Z,-1.30
2022-12-01T18:49:09.334Z,-1.26
2022-12-01T18:51:38.399Z,-1.19
2022-12-01T18:54:07.692Z,-1.18
2022-12-01T18:56:35.471Z,-1.19
2022-12-01T18:59:05.848Z,-1.16
2022-12-01T19:01:37.471Z,-1.09
2022-12-01T19:04:06.299Z,-1.08
2022-12-01T19:06:35.376Z,-1.11
2022-12-01T19:09:05.290Z,-1.08
2022-12-01T19:11:33.586Z,-1.00
2022-12-01T19:14:01.274Z,-1.03
2022-12-01T19:16:28.854Z,-0.99
2022-12-01T19:18:57.035Z,-0.95
2022-12-01T19:21:24.514Z,-0.93
2022-12-01T19:23:53.202Z,-0.88
2022-12-01T19:26:22.395Z,-0.85
2022-12-01T19:28:50.545Z,-0.84
2022-12-01T19:31:21.024Z,-0.78
2022-12-01T19:33:48.696Z,-0.73
2022-12-01T19:36:18.664Z,-0.72
2022-12-01T19:38:47.856Z,-0.76
2022-12-01T19:41:16.386Z,-0.79
2022-12-01T19:43:43.951Z,-0.80
2022-12-01T19:46:14.887Z,-0.76
2022-12-01T19:48:43.461Z,-0.74
2022-12-01T19:51:18.877Z,-0.75
2022-12-01T19:53:47.035Z,-0.69
2022-12-01T19:56:14.766Z,-0.63
2022-12-01T19:58:42.351Z,-0.67
2022-12-01T20:01:12.574Z,-0.65
2022-12-01T20:03:40.849Z,-0.63
2022-12-01T20:06:11.305Z,-0.62
2022-12-01T20:08:39.680Z,-0.62
2022-12-01T20:11:07.833Z,-0.63
2022-12-01T20:13:38.844Z,-0.68
2022-12-01T20:16:12.410Z,-0.69
2022-12-01T20:18:40.380Z,-0.68
2022-12-01T20:21:26.205Z,-0.72
2022-12-01T20:23:59.667Z,-0.73
2022-12-01T20:26:34.171Z,-0.72
2022-12-01T20:29:14.915Z,-0.68
2022-12-01T20:31:43.840Z,-0.75
2022-12-01T20:34:17.795Z,-0.78
2022-12-01T20:36:46.065Z,-0.71
2022-12-01T20:39:14.445Z,-0.70
2022-12-01T20:41:42.895Z,-0.68
2022-12-01T20:44:12.692Z,-0.72
2022-12-01T20:46:45.355Z,-0.68
2022-12-01T20:49:14.626Z,-0.69
2022-12-01T20:51:42.304Z,-0.64
2022-12-01T20:54:27.758Z,-0.63
2022-12-01T20:56:55.898Z,-0.61
2022-12-01T20:59:23.571Z,-0.66
2022-12-01T21:01:51.085Z,-0.62
2022-12-01T21:04:18.809Z,-0.64
2022-12-01T21:06:46.552Z,-0.65
2022-12-01T21:09:15.147Z,-0.68
2022-12-01T21:12:06.402Z,-0.66
2022-12-01T21:15:20.377Z,-0.62
2022-12-01T21:18:04.028Z,-0.66
2022-12-01T21:20:36.161Z,-0.61
2022-12-01T21:23:12.383Z,-0.63
2022-12-01T21:25:41.667Z,-0.64
2022-12-01T21:28:24.861Z,-0.65
2022-12-01T21:31:14.230Z,-0.66
2022-12-01T21:33:42.662Z,-0.60
2022-12-01T21:36:22.696Z,-0.62
2022-12-01T21:38:59.197Z,-0.62
2022-12-01T21:41:28.855Z,-0.71
2022-12-01T21:44:02.711Z,-0.82
2022-12-01T21:46:30.268Z,-0.87
2022-12-01T21:48:57.869Z,-0.95
2022-12-01T21:51:26.114Z,-0.95
2022-12-01T21:53:55.825Z,-1.00
2022-12-01T21:56:28.111Z,-0.98
2022-12-01T21:58:59.117Z,-0.92
2022-12-01T22:01:29.299Z,-0.80
2022-12-01T22:04:02.400Z,-0.73
2022-12-01T22:06:40.302Z,-0.76
2022-12-01T22:09:18.042Z,-0.78
2022-12-01T22:11:51.062Z,-0.79
2022-12-01T22:14:24.563Z,-0.82
2022-12-01T22:17:07.192Z,-0.89
2022-12-01T22:19:38.455Z,-0.90
2022-12-01T22:22:11.703Z,-0.95
2022-12-01T22:24:51.712Z,-0.95
2022-12-01T22:27:29.754Z,-0.98
2022-12-01T22:30:20.233Z,-0.95
2022-12-01T22:33:00.631Z,-1.00
2022-12-01T22:35:33.224Z,-1.02
2022-12-01T22:38:06.704Z,-1.01
2022-12-01T22:40:47.862Z,-1.06
2022-12-01T22:43:18.330Z,-1.04
2022-12-01T22:45:52.764Z,-1.04
2022-12-01T22:48:37.635Z,-1.04
2022-12-01T22:51:14.160Z,-1.05
2022-12-01T22:53:43.181Z,-1.01
2022-12-01T22:56:29.311Z,-1.00
2022-12-01T22:58:56.954Z,-1.05
2022-12-01T23:01:30.304Z,-1.02
2022-12-01T23:04:08.752Z,-1.02
2022-12-01T23:07:02.335Z,-0.98
2022-12-01T23:09:36.282Z,-0.96
2022-12-01T23:12:09.941Z,-0.97
2022-12-01T23:14:41.381Z,-0.97
2022-12-01T23:17:18.764Z,-1.04
2022-12-01T23:19:47.219Z,-1.07
2022-12-01T23:22:15.815Z,-1.08
2022-12-01T23:24:43.707Z,-1.04
2022-12-01T23:27:11.543Z,-1.01
2022-12-01T23:29:39.084Z,-1.05
2022-12-01T23:32:06.654Z,-1.03
2022-12-01T23:34:34.821Z,-1.01
2022-12-01T23:37:02.484Z,-0.99
2022-12-01T23:39:34.619Z,-0.97
2022-12-01T23:42:02.915Z,-1.01
2022-12-01T23:44:46.975Z,-1.04
2022-12-01T23:47:22.615Z,-1.08
2022-12-01T23:50:00.246Z,-1.06
2022-12-01T23:52:35.306Z,-1.00
2022-12-01T23:55:14.675Z,-1.03
2022-12-01T23:57:42.901Z,-0.98
